Отчёт УТП Минеральные Воды 24.10.2021

24 Октября 2021 года с 17 до 19 UTC в аэропорту Минеральных Вод (URMM) прошли учебно-тренировочные полеты в сети IVAO.

В работе был Минводы-Старт и Минводы-Подход.

Погода во время УТП:

METAR URMM 241900Z 04003MPS 9999 OVC009 11/08 Q1018
R30/090070 NOSIG RMK MT OBSC QFE735/0980=

Движение в воздухе было загруженным, 6 бортов курсантов выполняли упражнения, 3 борта на вылет и 3 на прилёт.

После полётов курсантов ожидал разбор полётов, где каждый услышал замечания от Инструктора.